createdAt,value
2018-04-20T00:01:05.152Z,15.40
2018-04-20T00:03:33.199Z,15.30
2018-04-20T00:06:01.267Z,15.20
2018-04-20T00:08:29.333Z,15.20
2018-04-20T00:10:57.388Z,15.10
2018-04-20T00:13:25.444Z,14.90
2018-04-20T00:15:53.504Z,14.70
2018-04-20T00:18:21.564Z,14.50
2018-04-20T00:20:49.635Z,14.40
2018-04-20T00:23:17.689Z,14.50
2018-04-20T00:25:45.749Z,14.40
2018-04-20T00:28:13.808Z,14.40
2018-04-20T00:30:41.857Z,14.40
2018-04-20T00:33:09.927Z,14.30
2018-04-20T00:35:37.980Z,14.30
2018-04-20T00:38:06.044Z,14.30
2018-04-20T00:40:34.096Z,14.20
2018-04-20T00:43:02.156Z,14.30
2018-04-20T00:45:30.240Z,14.30
2018-04-20T00:47:58.291Z,14.20
2018-04-20T00:50:26.348Z,14.10
2018-04-20T00:52:54.399Z,14.10
2018-04-20T00:55:22.472Z,14.10
2018-04-20T00:57:50.525Z,14.20
2018-04-20T01:00:18.589Z,14.20
2018-04-20T01:02:46.640Z,14.30
2018-04-20T01:05:14.707Z,14.70
2018-04-20T01:07:42.760Z,14.60
2018-04-20T01:10:10.844Z,14.40
2018-04-20T01:12:38.901Z,14.40
2018-04-20T01:15:06.977Z,14.20
2018-04-20T01:17:35.026Z,14.20
2018-04-20T01:20:03.087Z,14.10
2018-04-20T01:22:31.146Z,14.10
2018-04-20T01:24:59.208Z,14.10
2018-04-20T01:27:28.377Z,14.00
2018-04-20T01:29:56.440Z,14.00
2018-04-20T01:32:24.489Z,13.90
2018-04-20T01:34:52.556Z,13.70
2018-04-20T01:37:20.608Z,13.70
2018-04-20T01:39:48.668Z,13.80
2018-04-20T01:42:16.732Z,13.60
2018-04-20T01:44:44.788Z,13.60
2018-04-20T01:47:12.836Z,13.80
2018-04-20T01:49:40.903Z,13.70
2018-04-20T01:52:08.965Z,13.60
2018-04-20T01:54:37.030Z,13.60
2018-04-20T01:57:05.096Z,13.60
2018-04-20T01:59:33.145Z,13.60
2018-04-20T02:02:01.201Z,13.60
2018-04-20T02:04:29.252Z,13.60
2018-04-20T02:06:57.314Z,13.50
2018-04-20T02:09:25.394Z,13.60
2018-04-20T02:11:53.460Z,13.60
2018-04-20T02:14:21.512Z,13.50
2018-04-20T02:16:49.572Z,13.50
2018-04-20T02:19:17.635Z,13.50
2018-04-20T02:21:45.696Z,13.40
2018-04-20T02:24:13.757Z,13.30
2018-04-20T02:26:41.816Z,13.30
2018-04-20T02:29:09.869Z,13.30
2018-04-20T02:31:37.937Z,13.40
2018-04-20T02:34:05.993Z,13.40
2018-04-20T02:36:34.076Z,13.20
2018-04-20T02:39:02.124Z,13.20
2018-04-20T02:41:30.187Z,13.20
2018-04-20T02:43:58.242Z,13.10
2018-04-20T02:46:26.309Z,13.00
2018-04-20T02:48:54.356Z,12.90
2018-04-20T02:51:22.416Z,12.90
2018-04-20T02:53:50.469Z,12.80
2018-04-20T02:56:18.535Z,12.60
2018-04-20T02:58:46.584Z,12.60
2018-04-20T03:01:14.661Z,12.60
2018-04-20T03:03:42.709Z,12.70
2018-04-20T03:06:10.772Z,13.00
2018-04-20T03:08:38.895Z,13.20
2018-04-20T03:11:06.901Z,13.30
2018-04-20T03:13:34.959Z,13.20
2018-04-20T03:16:03.046Z,13.20
2018-04-20T03:18:31.096Z,13.20
2018-04-20T03:20:59.164Z,13.40
2018-04-20T03:23:28.328Z,13.20
2018-04-20T03:25:56.400Z,13.10
2018-04-20T03:28:24.452Z,13.10
2018-04-20T03:30:52.521Z,13.00
2018-04-20T03:33:20.568Z,13.00
2018-04-20T03:35:48.645Z,13.00
2018-04-20T03:38:16.697Z,13.10
2018-04-20T03:40:44.760Z,13.00
2018-04-20T03:43:12.816Z,13.00
2018-04-20T03:45:40.884Z,13.00
2018-04-20T03:48:08.944Z,12.60
2018-04-20T03:50:37.013Z,12.60
2018-04-20T03:53:05.073Z,12.40
2018-04-20T03:55:33.156Z,12.30
2018-04-20T03:58:01.213Z,12.30
2018-04-20T04:00:29.280Z,12.30
2018-04-20T04:02:57.330Z,12.20
2018-04-20T04:05:25.392Z,12.20
2018-04-20T04:07:53.448Z,12.10
2018-04-20T04:10:21.504Z,12.10
2018-04-20T04:12:49.571Z,12.10
2018-04-20T04:15:17.629Z,12.10
2018-04-20T04:18:03.425Z,12.10
2018-04-20T04:20:57.572Z,12.10
2018-04-20T04:23:43.312Z,12.40
2018-04-20T04:26:28.840Z,12.60
2018-04-20T04:28:56.895Z,12.80
2018-04-20T04:31:24.960Z,12.80
2018-04-20T04:33:53.012Z,12.80
2018-04-20T04:36:21.068Z,12.80
2018-04-20T04:38:49.125Z,12.70
2018-04-20T04:41:17.188Z,12.90
2018-04-20T04:43:45.249Z,13.00
2018-04-20T04:46:13.335Z,12.80
2018-04-20T04:48:41.402Z,12.90
2018-04-20T04:51:09.473Z,13.10
2018-04-20T04:53:37.533Z,13.30
2018-04-20T04:56:05.588Z,13.50
2018-04-20T04:58:33.655Z,13.80
2018-04-20T05:01:01.733Z,13.80
2018-04-20T05:03:29.953Z,13.60
2018-04-20T05:05:57.875Z,13.50
2018-04-20T05:08:25.959Z,13.40
2018-04-20T05:10:54.056Z,13.30
2018-04-20T05:13:22.122Z,13.40
2018-04-20T05:15:50.217Z,13.50
2018-04-20T05:18:18.276Z,13.30
2018-04-20T05:20:46.328Z,13.20
2018-04-20T05:23:14.385Z,13.20
2018-04-20T05:25:42.469Z,13.20
2018-04-20T05:28:10.520Z,13.40
2018-04-20T05:30:38.584Z,13.50
2018-04-20T05:33:06.648Z,13.60
2018-04-20T05:35:34.712Z,14.00
2018-04-20T05:38:02.908Z,14.30
2018-04-20T05:40:30.962Z,14.40
2018-04-20T05:42:59.056Z,14.50
2018-04-20T05:45:27.111Z,14.30
2018-04-20T05:47:55.182Z,14.50
2018-04-20T05:50:23.231Z,14.40
2018-04-20T05:52:51.296Z,14.70
2018-04-20T05:55:19.397Z,14.70
2018-04-20T05:57:47.464Z,14.90
2018-04-20T06:00:15.544Z,15.00
2018-04-20T06:02:43.597Z,15.20
2018-04-20T06:05:11.651Z,15.30
2018-04-20T06:07:39.722Z,15.40
2018-04-20T06:10:07.783Z,15.40
2018-04-20T06:12:35.844Z,15.50
2018-04-20T06:15:03.901Z,15.60
2018-04-20T06:17:31.968Z,15.70
2018-04-20T06:20:00.028Z,15.80
2018-04-20T06:22:28.521Z,15.80
2018-04-20T06:24:56.580Z,16.00
2018-04-20T06:27:24.645Z,16.20
2018-04-20T06:29:52.692Z,16.10
2018-04-20T06:32:20.765Z,16.10
2018-04-20T06:34:48.816Z,16.20
2018-04-20T06:37:16.888Z,16.10
2018-04-20T06:39:44.945Z,16.10
2018-04-20T06:42:13.027Z,16.20
2018-04-20T06:44:41.074Z,16.30
2018-04-20T06:47:09.135Z,16.40
2018-04-20T06:49:37.187Z,16.40
2018-04-20T06:52:05.268Z,16.40
2018-04-20T06:54:33.323Z,16.40
2018-04-20T06:57:01.405Z,16.50
2018-04-20T06:59:29.457Z,16.70
2018-04-20T07:01:57.528Z,16.80
2018-04-20T07:04:25.606Z,16.90
2018-04-20T07:06:53.677Z,16.80
2018-04-20T07:09:21.742Z,16.80
2018-04-20T07:11:49.796Z,17.00
2018-04-20T07:14:17.871Z,17.10
2018-04-20T07:16:45.929Z,17.30
2018-04-20T07:19:14.006Z,17.20
2018-04-20T07:21:42.091Z,17.10
2018-04-20T07:24:10.158Z,17.10
2018-04-20T07:26:38.218Z,17.20
2018-04-20T07:29:06.278Z,17.30
2018-04-20T07:31:34.338Z,17.30
2018-04-20T07:34:02.424Z,17.40
2018-04-20T07:36:30.474Z,17.60
2018-04-20T07:38:58.528Z,17.70
2018-04-20T07:41:26.617Z,17.80
2018-04-20T07:43:54.669Z,18.00
2018-04-20T07:46:22.724Z,18.30
2018-04-20T07:48:50.798Z,18.50
2018-04-20T07:51:18.852Z,18.80
2018-04-20T07:53:46.912Z,18.50
2018-04-20T07:56:14.969Z,18.30
2018-04-20T07:58:43.037Z,18.50
2018-04-20T08:01:11.088Z,18.70
2018-04-20T08:03:39.152Z,18.80
2018-04-20T08:06:07.208Z,18.80
2018-04-20T08:08:35.277Z,19.00
2018-04-20T08:11:03.345Z,19.00
2018-04-20T08:13:31.404Z,19.20
2018-04-20T08:15:59.493Z,19.10
2018-04-20T08:18:28.675Z,19.20
2018-04-20T08:20:56.740Z,19.30
2018-04-20T08:23:24.812Z,19.30
2018-04-20T08:25:52.868Z,19.40
2018-04-20T08:28:20.966Z,19.70
2018-04-20T08:30:49.030Z,20.00
2018-04-20T08:33:17.077Z,20.00
2018-04-20T08:35:45.140Z,20.10
2018-04-20T08:38:13.199Z,20.10
2018-04-20T08:40:41.248Z,20.20
2018-04-20T08:43:09.320Z,20.30
2018-04-20T08:45:37.389Z,20.40
2018-04-20T08:48:05.456Z,20.50
2018-04-20T08:50:33.513Z,20.70
2018-04-20T08:53:01.582Z,21.00
2018-04-20T08:55:29.626Z,21.10
2018-04-20T08:57:57.704Z,21.40
2018-04-20T09:00:25.788Z,21.20
2018-04-20T09:02:53.848Z,21.00
2018-04-20T09:05:21.903Z,21.20
2018-04-20T09:07:49.975Z,21.30
2018-04-20T09:10:18.041Z,21.50
2018-04-20T09:12:46.096Z,21.90
2018-04-20T09:15:14.156Z,22.10
2018-04-20T09:17:42.223Z,22.00
2018-04-20T09:20:10.263Z,22.20
2018-04-20T09:22:38.340Z,22.10
2018-04-20T09:25:06.428Z,21.80
2018-04-20T09:27:34.493Z,21.80
2018-04-20T09:30:02.557Z,22.10
2018-04-20T09:32:30.618Z,22.50
2018-04-20T09:34:58.681Z,22.50
2018-04-20T09:37:26.740Z,22.90
2018-04-20T09:39:54.805Z,22.90
2018-04-20T09:42:22.869Z,22.90
2018-04-20T09:44:50.936Z,22.80
2018-04-20T09:47:19.002Z,22.90
2018-04-20T09:49:47.072Z,23.30
2018-04-20T09:52:15.124Z,23.50
2018-04-20T09:54:43.247Z,23.50
2018-04-20T09:57:11.232Z,23.50
2018-04-20T09:59:39.292Z,23.70
2018-04-20T10:02:07.340Z,23.60
2018-04-20T10:04:45.306Z,23.80
2018-04-20T10:07:13.384Z,23.80
2018-04-20T10:09:41.432Z,23.80
2018-04-20T10:12:09.484Z,23.90
2018-04-20T10:14:37.548Z,24.10
2018-04-20T10:17:05.613Z,24.20
2018-04-20T10:19:33.668Z,24.10
2018-04-20T10:22:01.721Z,24.20
2018-04-20T10:24:29.784Z,24.40
2018-04-20T10:26:57.847Z,24.50
2018-04-20T10:29:25.904Z,24.20
2018-04-20T10:31:53.952Z,24.30
2018-04-20T10:34:22.013Z,24.20
2018-04-20T10:36:50.089Z,24.50
2018-04-20T10:39:18.155Z,24.80
2018-04-20T10:41:46.204Z,25.10
2018-04-20T10:44:14.264Z,25.20
2018-04-20T10:46:42.317Z,24.90
2018-04-20T10:49:10.376Z,25.00
2018-04-20T10:51:38.433Z,25.10
2018-04-20T10:54:06.497Z,25.40
2018-04-20T10:56:34.558Z,25.80
2018-04-20T10:59:02.620Z,25.80
2018-04-20T11:01:31.596Z,25.80
2018-04-20T11:03:59.657Z,26.70
2018-04-20T11:06:28.624Z,27.50
2018-04-20T11:08:56.682Z,27.70
2018-04-20T11:11:24.759Z,28.50
2018-04-20T11:13:52.796Z,28.90
2018-04-20T11:16:20.849Z,29.20
2018-04-20T11:18:48.912Z,29.30
2018-04-20T11:21:16.960Z,29.40
2018-04-20T11:23:45.085Z,29.70
2018-04-20T11:26:13.081Z,29.30
2018-04-20T11:28:41.144Z,28.60
2018-04-20T11:31:09.197Z,29.00
2018-04-20T11:33:37.273Z,29.30
2018-04-20T11:36:05.328Z,29.50
2018-04-20T11:38:33.390Z,29.60
2018-04-20T11:41:01.445Z,30.00
2018-04-20T11:43:29.512Z,30.50
2018-04-20T11:45:57.560Z,30.90
2018-04-20T11:48:25.634Z,30.90
2018-04-20T11:50:53.692Z,31.10
2018-04-20T11:53:21.753Z,31.40
2018-04-20T11:55:49.814Z,31.30
2018-04-20T11:58:17.870Z,31.70
2018-04-20T12:00:45.935Z,31.90
2018-04-20T12:03:13.973Z,32.20
2018-04-20T12:05:42.044Z,32.30
2018-04-20T12:08:10.097Z,31.80
2018-04-20T12:10:38.174Z,31.80
2018-04-20T12:13:06.225Z,32.00
2018-04-20T12:15:34.292Z,31.50
2018-04-20T12:18:02.351Z,31.70
2018-04-20T12:20:30.405Z,32.10
2018-04-20T12:22:58.454Z,31.70
2018-04-20T12:25:26.513Z,32.00
2018-04-20T12:27:54.593Z,32.30
2018-04-20T12:30:22.669Z,32.40
2018-04-20T12:32:50.719Z,33.10
2018-04-20T12:35:18.781Z,33.10
2018-04-20T12:37:46.838Z,33.50
2018-04-20T12:40:14.948Z,34.00
2018-04-20T12:42:42.996Z,34.40
2018-04-20T12:45:11.072Z,34.70
2018-04-20T12:47:39.186Z,34.20
2018-04-20T12:50:07.197Z,34.20
2018-04-20T12:52:35.241Z,34.50
2018-04-20T12:55:03.311Z,34.80
2018-04-20T12:57:31.379Z,34.90
2018-04-20T12:59:59.435Z,34.30
2018-04-20T13:02:28.454Z,33.90
2018-04-20T13:04:56.521Z,34.10
2018-04-20T13:07:24.580Z,35.20
2018-04-20T13:09:52.647Z,34.80
2018-04-20T13:12:20.701Z,34.00
2018-04-20T13:14:48.761Z,33.10
2018-04-20T13:17:16.808Z,33.20
2018-04-20T13:19:44.881Z,33.00
2018-04-20T13:22:12.928Z,32.60
2018-04-20T13:24:40.997Z,32.50
2018-04-20T13:27:09.060Z,32.10
2018-04-20T13:29:37.119Z,31.40
2018-04-20T13:32:05.170Z,31.00
2018-04-20T13:34:33.229Z,30.80
2018-04-20T13:37:01.311Z,30.80
2018-04-20T13:39:29.361Z,30.40
2018-04-20T13:41:57.432Z,30.50
2018-04-20T13:44:25.535Z,30.20
2018-04-20T13:46:53.564Z,30.10
2018-04-20T13:49:21.634Z,29.70
2018-04-20T13:51:49.712Z,29.40
2018-04-20T13:54:17.774Z,29.60
2018-04-20T13:56:45.825Z,29.70
2018-04-20T13:59:13.885Z,30.30
2018-04-20T14:01:41.940Z,30.50
2018-04-20T14:04:10.016Z,31.10
2018-04-20T14:06:38.081Z,31.20
2018-04-20T14:09:06.928Z,31.30
2018-04-20T14:11:34.993Z,31.70
2018-04-20T14:14:03.045Z,32.00
2018-04-20T14:16:31.113Z,32.20
2018-04-20T14:18:59.172Z,32.10
2018-04-20T14:21:27.240Z,31.70
2018-04-20T14:23:55.297Z,31.10
2018-04-20T14:26:23.381Z,30.40
2018-04-20T14:28:51.421Z,30.50
2018-04-20T14:31:19.485Z,30.00
2018-04-20T14:33:47.543Z,29.90
2018-04-20T14:36:15.622Z,30.30
2018-04-20T14:38:43.664Z,30.80
2018-04-20T14:41:11.724Z,30.80
2018-04-20T14:43:39.794Z,30.40
2018-04-20T14:46:07.863Z,30.60
2018-04-20T14:48:35.924Z,30.40
2018-04-20T14:51:03.992Z,29.80
2018-04-20T14:53:32.045Z,29.50
2018-04-20T14:56:00.108Z,28.90
2018-04-20T14:58:28.541Z,29.30
2018-04-20T15:00:56.624Z,29.00
2018-04-20T15:03:24.672Z,29.20
2018-04-20T15:05:52.736Z,29.50
2018-04-20T15:08:20.784Z,29.60
2018-04-20T15:10:48.851Z,29.70
2018-04-20T15:13:17.855Z,29.30
2018-04-20T15:15:45.844Z,29.40
2018-04-20T15:18:13.895Z,29.30
2018-04-20T15:20:42.028Z,29.40
2018-04-20T15:23:10.032Z,29.50
2018-04-20T15:25:38.095Z,29.60
2018-04-20T15:28:06.149Z,29.20
2018-04-20T15:30:34.209Z,29.40
2018-04-20T15:33:02.265Z,29.40
2018-04-20T15:35:30.332Z,29.30
2018-04-20T15:37:58.381Z,29.50
2018-04-20T15:40:26.440Z,29.50
2018-04-20T15:42:54.502Z,29.00
2018-04-20T15:45:22.570Z,28.70
2018-04-20T15:47:50.627Z,28.60
2018-04-20T15:50:18.684Z,28.80
2018-04-20T15:52:46.740Z,29.30
2018-04-20T15:55:14.819Z,29.30
2018-04-20T15:57:42.884Z,29.30
2018-04-20T16:00:10.941Z,29.30
2018-04-20T16:02:38.997Z,29.50
2018-04-20T16:05:07.049Z,29.80
2018-04-20T16:07:35.133Z,30.20
2018-04-20T16:10:03.199Z,30.20
2018-04-20T16:12:31.230Z,30.00
2018-04-20T16:14:59.310Z,30.00
2018-04-20T16:17:28.480Z,30.00
2018-04-20T16:19:56.556Z,30.10
2018-04-20T16:22:24.604Z,30.00
2018-04-20T16:24:53.573Z,29.40
2018-04-20T16:27:21.645Z,29.60
2018-04-20T16:29:49.692Z,29.70
2018-04-20T16:32:17.769Z,29.20
2018-04-20T16:34:45.817Z,28.90
2018-04-20T16:37:13.876Z,28.90
2018-04-20T16:39:41.937Z,28.60
2018-04-20T16:42:09.993Z,28.70
2018-04-20T16:44:38.044Z,28.70
2018-04-20T16:47:06.104Z,28.90
2018-04-20T16:49:34.161Z,28.80
2018-04-20T16:52:02.222Z,29.00
2018-04-20T16:54:30.287Z,29.00
2018-04-20T16:56:58.340Z,29.00
2018-04-20T16:59:26.389Z,28.80
2018-04-20T17:01:54.463Z,28.80
2018-04-20T17:04:22.536Z,28.10
2018-04-20T17:06:50.593Z,27.90
2018-04-20T17:09:18.649Z,27.40
2018-04-20T17:11:46.705Z,27.00
2018-04-20T17:14:14.753Z,26.50
2018-04-20T17:16:42.832Z,26.20
2018-04-20T17:19:12.848Z,25.90
2018-04-20T17:21:40.912Z,25.50
2018-04-20T17:24:08.968Z,25.40
2018-04-20T17:26:38.372Z,25.10
2018-04-20T17:29:06.445Z,25.00
2018-04-20T17:31:34.504Z,24.80
2018-04-20T17:34:03.554Z,24.60
2018-04-20T17:36:31.625Z,24.40
2018-04-20T17:39:00.573Z,24.30
2018-04-20T17:41:29.560Z,24.20
2018-04-20T17:43:57.635Z,24.30
2018-04-20T17:46:26.489Z,24.20
2018-04-20T17:48:55.268Z,24.00
2018-04-20T17:51:23.332Z,23.90
2018-04-20T17:53:51.881Z,23.80
2018-04-20T17:56:19.944Z,23.70
2018-04-20T17:58:48.021Z,23.60
2018-04-20T18:01:16.425Z,23.60
2018-04-20T18:03:45.215Z,23.40
2018-04-20T18:06:13.264Z,23.50
2018-04-20T18:08:41.323Z,23.20
2018-04-20T18:11:09.445Z,23.10
2018-04-20T18:13:37.501Z,23.10
2018-04-20T18:16:05.608Z,23.00
2018-04-20T18:18:33.665Z,23.00
2018-04-20T18:21:01.773Z,23.10
2018-04-20T18:23:29.855Z,22.90
2018-04-20T18:25:57.923Z,22.90
2018-04-20T18:28:26.054Z,22.80
2018-04-20T18:30:54.117Z,22.80
2018-04-20T18:33:22.948Z,22.70
2018-04-20T18:35:51.016Z,22.50
2018-04-20T18:38:19.072Z,22.40
2018-04-20T18:40:47.285Z,22.30
2018-04-20T18:43:15.337Z,22.20
2018-04-20T18:45:43.387Z,22.00
2018-04-20T18:48:11.471Z,22.00
2018-04-20T18:50:39.520Z,22.10
2018-04-20T18:53:07.595Z,22.00
2018-04-20T18:55:36.445Z,22.20
2018-04-20T18:58:04.540Z,22.10
2018-04-20T19:00:32.626Z,22.30
2018-04-20T19:03:00.678Z,22.10
2018-04-20T19:05:29.585Z,22.00
2018-04-20T19:07:57.660Z,21.90
2018-04-20T19:10:25.713Z,21.80
2018-04-20T19:12:53.785Z,21.80
2018-04-20T19:15:21.913Z,21.70
2018-04-20T19:17:49.985Z,21.60
2018-04-20T19:20:18.876Z,21.50
2018-04-20T19:22:47.120Z,21.40
2018-04-20T19:25:15.168Z,21.40
2018-04-20T19:27:43.244Z,21.40
2018-04-20T19:30:12.215Z,21.50
2018-04-20T19:32:40.284Z,21.50
2018-04-20T19:35:08.333Z,21.30
2018-04-20T19:37:36.425Z,21.20
2018-04-20T19:40:04.473Z,21.40
2018-04-20T19:42:32.566Z,21.40
2018-04-20T19:45:00.633Z,21.20
2018-04-20T19:47:28.703Z,21.20
2018-04-20T19:49:56.746Z,21.10
2018-04-20T19:52:24.808Z,21.10
2018-04-20T19:54:52.852Z,20.80
2018-04-20T19:57:21.056Z,20.70
2018-04-20T19:59:49.116Z,20.60
2018-04-20T20:02:17.949Z,20.60
2018-04-20T20:04:46.052Z,20.50
2018-04-20T20:07:14.097Z,20.50
2018-04-20T20:09:42.936Z,20.40
2018-04-20T20:12:11.008Z,20.40
2018-04-20T20:14:39.153Z,20.50
2018-04-20T20:17:07.204Z,20.40
2018-04-20T20:19:36.117Z,20.30
2018-04-20T20:22:04.971Z,20.30
2018-04-20T20:24:33.016Z,20.40
2018-04-20T20:27:01.092Z,20.30
2018-04-20T20:29:29.228Z,20.20
2018-04-20T20:31:57.276Z,20.20
2018-04-20T20:34:26.056Z,20.10
2018-04-20T20:36:54.120Z,19.80
2018-04-20T20:39:22.169Z,19.60
2018-04-20T20:41:50.250Z,19.50
2018-04-20T20:44:18.296Z,19.30
2018-04-20T20:46:46.380Z,19.30
2018-04-20T20:49:14.476Z,19.10
2018-04-20T20:51:42.550Z,18.90
2018-04-20T20:54:10.612Z,18.70
2018-04-20T20:56:38.697Z,18.70
2018-04-20T20:59:06.784Z,18.80
2018-04-20T21:01:34.844Z,18.80
2018-04-20T21:04:02.956Z,18.80
2018-04-20T21:06:31.025Z,18.80
2018-04-20T21:08:59.091Z,18.90
2018-04-20T21:11:28.715Z,19.00
2018-04-20T21:13:58.453Z,19.10
2018-04-20T21:16:28.402Z,19.10
2018-04-20T21:18:58.364Z,18.90
2018-04-20T21:21:27.573Z,18.80
2018-04-20T21:23:56.473Z,18.70
2018-04-20T21:26:24.549Z,18.60
2018-04-20T21:28:52.709Z,18.70
2018-04-20T21:31:20.768Z,18.60
2018-04-20T21:33:48.857Z,18.40
2018-04-20T21:36:16.940Z,18.30
2018-04-20T21:38:45.184Z,18.20
2018-04-20T21:41:13.245Z,18.10
2018-04-20T21:43:41.314Z,18.00
2018-04-20T21:46:10.144Z,18.00
2018-04-20T21:48:38.224Z,17.90
2018-04-20T21:51:06.313Z,17.90
2018-04-20T21:53:34.511Z,17.80
2018-04-20T21:56:02.650Z,17.80
2018-04-20T21:58:30.748Z,17.80
2018-04-20T22:00:58.855Z,17.90
2018-04-20T22:03:28.046Z,18.00
2018-04-20T22:05:56.107Z,18.00
2018-04-20T22:08:24.285Z,18.00
2018-04-20T22:10:52.357Z,17.80
2018-04-20T22:13:20.424Z,17.90
2018-04-20T22:15:48.488Z,17.70
2018-04-20T22:18:16.582Z,17.60
2018-04-20T22:20:44.664Z,17.40
2018-04-20T22:23:12.846Z,17.30
2018-04-20T22:25:40.923Z,17.10
2018-04-20T22:28:09.096Z,17.00
2018-04-20T22:30:37.283Z,17.00
2018-04-20T22:33:05.362Z,17.00
2018-04-20T22:35:33.432Z,17.00
2018-04-20T22:38:01.578Z,17.00
2018-04-20T22:40:30.673Z,17.10
2018-04-20T22:42:58.787Z,17.00
2018-04-20T22:45:26.964Z,17.10
2018-04-20T22:47:55.046Z,17.20
2018-04-20T22:50:23.117Z,17.30
2018-04-20T22:52:51.296Z,17.40
2018-04-20T22:55:19.384Z,17.20
2018-04-20T22:57:48.989Z,17.10
2018-04-20T23:00:22.786Z,16.90
2018-04-20T23:02:50.853Z,16.80
2018-04-20T23:05:18.925Z,16.90
2018-04-20T23:07:47.020Z,17.00
2018-04-20T23:10:15.096Z,17.00
2018-04-20T23:12:43.160Z,17.60
2018-04-20T23:15:11.220Z,17.70
2018-04-20T23:17:40.060Z,17.70
2018-04-20T23:20:08.180Z,17.10
2018-04-20T23:22:36.340Z,16.60
2018-04-20T23:25:04.429Z,16.70
2018-04-20T23:27:32.493Z,17.20
2018-04-20T23:30:00.556Z,17.30
2018-04-20T23:32:29.608Z,17.20
2018-04-20T23:34:57.648Z,17.40
2018-04-20T23:37:26.508Z,17.40
2018-04-20T23:39:54.577Z,17.10
2018-04-20T23:42:22.648Z,17.10
2018-04-20T23:44:50.720Z,17.20
2018-04-20T23:47:18.790Z,17.40
2018-04-20T23:49:46.860Z,17.40
2018-04-20T23:52:14.933Z,17.40
2018-04-20T23:54:43.002Z,17.30
2018-04-20T23:57:11.069Z,17.40
2018-04-20T23:59:39.142Z,17.30
